createdAt,value
2024-04-24T00:01:28.389Z,12.82
2024-04-24T00:03:54.986Z,15.02
2024-04-24T00:06:21.542Z,13.32
2024-04-24T00:08:50.624Z,13.90
2024-04-24T00:11:18.131Z,13.80
2024-04-24T00:13:44.742Z,14.50
2024-04-24T00:16:11.379Z,14.60
2024-04-24T00:18:38.229Z,15.60
2024-04-24T00:21:05.087Z,15.43
2024-04-24T00:23:32.638Z,15.40
2024-04-24T00:26:01.800Z,15.10
2024-04-24T00:28:28.375Z,15.15
2024-04-24T00:30:57.610Z,15.15
2024-04-24T00:33:24.295Z,17.30
2024-04-24T00:35:50.858Z,18.85
2024-04-24T00:38:17.533Z,16.63
2024-04-24T00:40:44.145Z,15.65
2024-04-24T00:43:13.292Z,15.75
2024-04-24T00:45:39.863Z,16.40
2024-04-24T00:48:09.221Z,15.50
2024-04-24T00:50:36.933Z,15.88
2024-04-24T00:53:03.897Z,15.55
2024-04-24T00:55:30.935Z,14.10
2024-04-24T00:57:57.604Z,14.38
2024-04-24T01:00:26.850Z,14.10
2024-04-24T01:02:53.550Z,14.50
2024-04-24T01:05:20.642Z,14.38
2024-04-24T01:07:47.321Z,13.95
2024-04-24T01:10:15.571Z,12.75
2024-04-24T01:12:42.140Z,12.65
2024-04-24T01:15:09.962Z,12.93
2024-04-24T01:17:42.603Z,13.27
2024-04-24T01:20:12.443Z,15.55
2024-04-24T01:22:52.515Z,13.18
2024-04-24T01:25:24.797Z,13.27
2024-04-24T01:27:54.184Z,12.13
2024-04-24T01:30:20.782Z,12.93
2024-04-24T01:32:47.415Z,13.18
2024-04-24T01:35:14.226Z,14.10
2024-04-24T01:37:40.816Z,12.40
2024-04-24T01:40:08.609Z,11.90
2024-04-24T01:42:35.160Z,12.80
2024-04-24T01:45:05.210Z,11.90
2024-04-24T01:47:31.892Z,11.23
2024-04-24T01:49:58.591Z,12.07
2024-04-24T01:52:25.226Z,10.85
2024-04-24T01:54:51.750Z,10.20
2024-04-24T01:57:18.343Z,11.65
2024-04-24T01:59:44.930Z,10.90
2024-04-24T02:02:14.122Z,11.73
2024-04-24T02:04:40.672Z,11.45
2024-04-24T02:07:07.231Z,11.90
2024-04-24T02:09:33.894Z,11.00
2024-04-24T02:12:09.773Z,11.57
2024-04-24T02:14:41.177Z,12.02
2024-04-24T02:17:07.762Z,10.45
2024-04-24T02:19:37.045Z,10.35
2024-04-24T02:22:03.566Z,9.88
2024-04-24T02:24:30.160Z,11.55
2024-04-24T02:26:56.744Z,10.43
2024-04-24T02:29:23.487Z,10.85
2024-04-24T02:31:50.153Z,10.50
2024-04-24T02:34:16.695Z,10.63
2024-04-24T02:36:45.798Z,10.05
2024-04-24T02:39:12.414Z,10.52
2024-04-24T02:41:38.987Z,10.65
2024-04-24T02:44:05.576Z,10.27
2024-04-24T02:46:33.108Z,9.15
2024-04-24T02:48:59.645Z,10.20
2024-04-24T02:51:26.180Z,9.82
2024-04-24T02:53:55.331Z,9.30
2024-04-24T02:56:21.859Z,8.80
2024-04-24T02:58:48.400Z,8.63
2024-04-24T03:01:15.303Z,8.02
2024-04-24T03:03:42.019Z,7.25
2024-04-24T03:06:08.804Z,6.65
2024-04-24T03:08:35.378Z,7.40
2024-04-24T03:11:04.787Z,9.40
2024-04-24T03:13:31.385Z,8.50
2024-04-24T03:15:57.923Z,8.48
2024-04-24T03:18:24.488Z,8.18
2024-04-24T03:20:51.026Z,8.75
2024-04-24T03:23:17.714Z,7.80
2024-04-24T03:25:44.311Z,8.05
2024-04-24T03:28:13.761Z,7.70
2024-04-24T03:30:40.326Z,7.88
2024-04-24T03:33:07.059Z,7.88
2024-04-24T03:35:33.675Z,7.32
2024-04-24T03:38:00.264Z,7.70
2024-04-24T03:40:26.793Z,7.72
2024-04-24T03:42:53.381Z,7.97
2024-04-24T03:45:24.415Z,7.38
2024-04-24T03:47:51.092Z,7.65
2024-04-24T03:50:17.942Z,7.30
2024-04-24T03:52:44.539Z,8.50
2024-04-24T03:55:11.074Z,7.55
2024-04-24T03:57:37.596Z,8.15
2024-04-24T04:00:04.666Z,7.47
2024-04-24T04:02:33.919Z,7.50
2024-04-24T04:05:00.655Z,6.65
2024-04-24T04:07:27.244Z,7.68
2024-04-24T04:09:53.762Z,7.63
2024-04-24T04:12:20.377Z,7.20
2024-04-24T04:14:46.946Z,7.57
2024-04-24T04:17:13.662Z,6.80
2024-04-24T04:19:42.973Z,6.88
2024-04-24T04:22:09.579Z,6.55
2024-04-24T04:24:36.152Z,6.53
2024-04-24T04:27:02.682Z,6.90
2024-04-24T04:29:29.471Z,7.00
2024-04-24T04:31:56.065Z,6.60
2024-04-24T04:34:22.614Z,7.20
2024-04-24T04:36:51.936Z,6.90
2024-04-24T04:39:18.497Z,6.90
2024-04-24T04:41:45.052Z,7.30
2024-04-24T04:44:11.618Z,7.55
2024-04-24T04:46:38.130Z,7.13
2024-04-24T04:49:04.671Z,6.80
2024-04-24T04:51:31.213Z,6.47
2024-04-24T04:54:00.409Z,6.15
2024-04-24T04:56:27.007Z,6.28
2024-04-24T04:58:53.604Z,7.95
2024-04-24T05:01:20.158Z,6.60
2024-04-24T05:03:46.720Z,8.30
2024-04-24T05:06:13.279Z,6.70
2024-04-24T05:08:39.803Z,5.50
2024-04-24T05:11:08.959Z,6.70
2024-04-24T05:13:35.691Z,5.03
2024-04-24T05:16:02.205Z,6.15
2024-04-24T05:18:28.910Z,6.05
2024-04-24T05:20:55.495Z,6.53
2024-04-24T05:23:22.122Z,5.82
2024-04-24T05:25:48.764Z,5.35
2024-04-24T05:28:17.930Z,4.53
2024-04-24T05:30:44.598Z,4.97
2024-04-24T05:33:11.260Z,5.75
2024-04-24T05:35:37.874Z,5.32
2024-04-24T05:38:04.617Z,5.05
2024-04-24T05:40:31.189Z,4.72
2024-04-24T05:42:57.726Z,4.97
2024-04-24T05:45:28.653Z,5.18
2024-04-24T05:47:55.296Z,4.95
2024-04-24T05:50:21.994Z,5.15
2024-04-24T05:52:48.668Z,5.53
2024-04-24T05:55:15.262Z,5.05
2024-04-24T05:57:41.829Z,4.38
2024-04-24T06:00:09.498Z,5.10
2024-04-24T06:02:38.743Z,5.00
2024-04-24T06:05:06.188Z,4.90
2024-04-24T06:07:32.932Z,4.78
2024-04-24T06:09:59.480Z,3.85
2024-04-24T06:12:26.044Z,4.20
2024-04-24T06:14:52.706Z,3.70
2024-04-24T06:17:19.327Z,4.40
2024-04-24T06:19:48.642Z,3.95
2024-04-24T06:22:15.213Z,3.85
2024-04-24T06:24:41.765Z,3.45
2024-04-24T06:27:08.417Z,3.65
2024-04-24T06:29:34.984Z,3.25
2024-04-24T06:32:01.694Z,3.65
2024-04-24T06:34:28.327Z,4.00
2024-04-24T06:36:57.416Z,3.75
2024-04-24T06:39:23.966Z,4.07
2024-04-24T06:41:50.544Z,4.97
2024-04-24T06:44:17.107Z,4.00
2024-04-24T06:46:43.695Z,4.20
2024-04-24T06:49:10.514Z,3.92
2024-04-24T06:51:37.057Z,4.13
2024-04-24T06:54:06.236Z,4.93
2024-04-24T06:56:33.850Z,4.03
2024-04-24T06:59:00.593Z,4.57
2024-04-24T07:01:27.185Z,3.83
2024-04-24T07:03:53.816Z,4.93
2024-04-24T07:06:20.418Z,4.32
2024-04-24T07:08:47.003Z,4.43
2024-04-24T07:11:16.208Z,4.88
2024-04-24T07:13:42.882Z,4.30
2024-04-24T07:16:09.437Z,4.90
2024-04-24T07:18:36.046Z,5.07
2024-04-24T07:21:02.733Z,4.20
2024-04-24T07:23:29.343Z,3.50
2024-04-24T07:25:56.088Z,3.95
2024-04-24T07:28:25.273Z,3.97
2024-04-24T07:30:51.806Z,4.38
2024-04-24T07:33:18.548Z,3.15
2024-04-24T07:35:45.127Z,3.13
2024-04-24T07:38:11.702Z,3.25
2024-04-24T07:40:38.300Z,4.07
2024-04-24T07:43:04.866Z,3.45
2024-04-24T07:45:34.043Z,3.72
2024-04-24T07:48:00.736Z,3.42
2024-04-24T07:50:27.376Z,2.75
2024-04-24T07:52:54.087Z,3.15
2024-04-24T07:55:20.710Z,3.72
2024-04-24T07:57:47.258Z,3.13
2024-04-24T08:00:14.711Z,3.45
2024-04-24T08:02:43.931Z,3.28
2024-04-24T08:05:10.602Z,2.95
2024-04-24T08:07:37.179Z,2.40
2024-04-24T08:10:04.134Z,3.05
2024-04-24T08:12:30.862Z,3.20
2024-04-24T08:14:57.642Z,3.00
2024-04-24T08:17:26.080Z,1.85
2024-04-24T08:19:55.575Z,2.15
2024-04-24T08:22:22.175Z,2.40
2024-04-24T08:24:48.726Z,2.30
2024-04-24T08:27:15.359Z,2.15
2024-04-24T08:29:42.083Z,2.55
2024-04-24T08:32:08.697Z,2.65
2024-04-24T08:34:35.707Z,2.13
2024-04-24T08:37:05.302Z,2.65
2024-04-24T08:39:32.066Z,1.90
2024-04-24T08:42:00.284Z,2.47
2024-04-24T08:44:29.058Z,2.25
2024-04-24T08:46:56.609Z,2.63
2024-04-24T08:49:23.688Z,1.85
2024-04-24T08:51:50.885Z,2.30
2024-04-24T08:54:25.596Z,2.05
2024-04-24T08:57:00.165Z,2.70
2024-04-24T09:01:58.816Z,3.08
2024-04-24T09:04:26.028Z,2.85
2024-04-24T09:06:52.858Z,2.40
2024-04-24T09:09:23.419Z,2.58
2024-04-24T09:11:51.207Z,2.22
2024-04-24T09:14:19.296Z,2.15
2024-04-24T09:16:46.836Z,2.53
2024-04-24T09:19:13.423Z,2.40
2024-04-24T09:21:40.509Z,2.75
2024-04-24T09:24:07.394Z,2.47
2024-04-24T09:26:36.884Z,2.00
2024-04-24T09:29:03.549Z,2.10
2024-04-24T09:31:30.196Z,2.28
2024-04-24T09:33:56.866Z,1.92
2024-04-24T09:36:23.553Z,2.15
2024-04-24T09:38:50.260Z,2.80
2024-04-24T09:41:16.859Z,2.13
2024-04-24T09:43:46.234Z,2.35
2024-04-24T09:46:12.895Z,2.10
2024-04-24T09:48:40.829Z,1.83
2024-04-24T09:51:07.503Z,2.58
2024-04-24T09:53:34.174Z,1.90
2024-04-24T09:56:05.712Z,2.17
2024-04-24T09:58:34.957Z,1.83
2024-04-24T10:01:08.083Z,2.25
2024-04-24T10:03:35.897Z,2.55
2024-04-24T10:06:03.710Z,2.85
2024-04-24T10:08:32.470Z,1.90
2024-04-24T10:11:01.856Z,2.63
2024-04-24T10:13:32.939Z,3.05
2024-04-24T10:16:00.563Z,3.08
2024-04-24T10:18:30.374Z,2.28
2024-04-24T10:20:59.338Z,2.97
2024-04-24T10:23:28.524Z,2.83
2024-04-24T10:25:56.524Z,2.35
2024-04-24T10:28:23.798Z,2.85
2024-04-24T10:30:51.089Z,2.47
2024-04-24T10:33:18.698Z,1.90
2024-04-24T10:35:48.032Z,1.80
2024-04-24T10:38:15.439Z,2.08
2024-04-24T10:40:45.915Z,2.72
2024-04-24T10:43:15.440Z,2.65
2024-04-24T10:45:42.973Z,2.38
2024-04-24T10:48:10.752Z,2.28
2024-04-24T10:50:39.210Z,2.72
2024-04-24T10:53:12.695Z,2.38
2024-04-24T10:55:50.364Z,2.28
2024-04-24T10:58:20.402Z,2.20
2024-04-24T11:00:47.111Z,2.08
2024-04-24T11:03:13.842Z,2.47
2024-04-24T11:05:40.762Z,2.38
2024-04-24T11:08:20.165Z,2.63
2024-04-24T11:10:50.581Z,2.17
2024-04-24T11:13:17.149Z,2.33
2024-04-24T11:15:51.316Z,1.95
2024-04-24T11:18:25.194Z,2.28
2024-04-24T11:20:51.788Z,2.45
2024-04-24T11:23:20.959Z,3.10
2024-04-24T11:25:52.812Z,2.45
2024-04-24T11:28:25.372Z,2.40
2024-04-24T11:30:51.955Z,2.38
2024-04-24T11:33:19.963Z,2.35
2024-04-24T11:35:46.988Z,2.42
2024-04-24T11:38:13.781Z,3.92
2024-04-24T11:40:43.545Z,2.20
2024-04-24T11:43:10.285Z,1.98
2024-04-24T11:45:36.911Z,1.90
2024-04-24T11:48:04.958Z,1.67
2024-04-24T11:50:31.976Z,2.17
2024-04-24T11:52:59.439Z,2.00
2024-04-24T11:55:26.088Z,1.90
2024-04-24T11:57:55.223Z,2.20
2024-04-24T12:00:21.803Z,2.22
2024-04-24T12:02:48.482Z,1.80
2024-04-24T12:05:15.258Z,2.42
2024-04-24T12:07:45.080Z,2.03
2024-04-24T12:10:12.366Z,1.80
2024-04-24T12:12:39.063Z,1.90
2024-04-24T12:15:12.734Z,1.92
2024-04-24T12:20:07.521Z,1.45
2024-04-24T12:22:34.550Z,1.77
2024-04-24T12:25:01.115Z,1.85
2024-04-24T12:27:27.647Z,2.33
2024-04-24T12:29:54.219Z,2.47
2024-04-24T12:32:23.555Z,2.30
2024-04-24T12:34:50.161Z,2.17
2024-04-24T12:37:16.843Z,2.17
2024-04-24T12:39:43.382Z,2.10
2024-04-24T12:42:10.036Z,2.10
2024-04-24T12:44:36.625Z,2.35
2024-04-24T12:47:03.282Z,1.80
2024-04-24T12:49:33.270Z,1.70
2024-04-24T12:51:59.849Z,1.42
2024-04-24T12:54:26.432Z,1.60
2024-04-24T12:56:52.971Z,1.00
2024-04-24T12:59:19.582Z,0.90
2024-04-24T13:01:46.210Z,1.30
2024-04-24T13:04:13.125Z,1.17
2024-04-24T13:06:42.455Z,1.10
2024-04-24T13:09:08.988Z,0.88
2024-04-24T13:11:35.720Z,1.00
2024-04-24T13:14:02.465Z,0.77
2024-04-24T13:16:29.013Z,1.40
2024-04-24T13:18:55.707Z,1.35
2024-04-24T13:21:22.342Z,1.73
2024-04-24T13:23:51.501Z,1.20
2024-04-24T13:26:18.092Z,1.50
2024-04-24T13:28:44.650Z,2.20
2024-04-24T13:31:11.212Z,2.30
2024-04-24T13:33:38.297Z,1.10
2024-04-24T13:36:05.577Z,1.10
2024-04-24T13:38:32.117Z,1.10
2024-04-24T13:41:04.945Z,1.20
2024-04-24T13:43:32.074Z,1.52
2024-04-24T13:45:58.646Z,1.60
2024-04-24T13:48:27.256Z,1.38
2024-04-24T13:50:54.670Z,1.20
2024-04-24T13:53:21.241Z,1.08
2024-04-24T13:55:49.800Z,1.45
2024-04-24T13:58:18.956Z,1.50
2024-04-24T14:00:47.330Z,1.30
2024-04-24T14:03:13.947Z,1.02
2024-04-24T14:05:40.712Z,1.95
2024-04-24T14:08:07.553Z,1.48
2024-04-24T14:10:34.138Z,1.00
2024-04-24T14:13:00.706Z,1.58
2024-04-24T14:15:30.196Z,1.55
2024-04-24T14:17:56.923Z,2.13
2024-04-24T14:20:23.629Z,2.00
2024-04-24T14:22:50.183Z,1.80
2024-04-24T14:25:16.778Z,1.48
2024-04-24T14:27:44.679Z,1.70
2024-04-24T14:30:11.846Z,1.77
2024-04-24T14:32:41.066Z,1.70
2024-04-24T14:35:08.241Z,1.75
2024-04-24T14:37:34.915Z,1.95
2024-04-24T14:40:01.698Z,2.28
2024-04-24T14:42:28.268Z,2.50
2024-04-24T14:44:54.962Z,2.63
2024-04-24T14:47:21.516Z,2.80
2024-04-24T14:49:50.851Z,2.75
2024-04-24T14:52:17.435Z,2.50
2024-04-24T14:54:44.060Z,2.60
2024-04-24T14:57:10.714Z,3.45
2024-04-24T14:59:37.427Z,3.38
2024-04-24T15:02:04.353Z,3.10
2024-04-24T15:04:31.102Z,2.53
2024-04-24T15:07:04.387Z,2.45
2024-04-24T15:09:30.954Z,2.53
2024-04-24T15:11:57.512Z,2.38
2024-04-24T15:14:24.099Z,2.35
2024-04-24T15:16:50.651Z,2.00
2024-04-24T15:19:17.342Z,2.00
2024-04-24T15:21:44.242Z,2.78
2024-04-24T15:24:13.509Z,2.35
2024-04-24T15:26:40.089Z,2.10
2024-04-24T15:29:06.767Z,1.70
2024-04-24T15:31:33.423Z,1.60
2024-04-24T15:34:00.591Z,1.63
2024-04-24T15:36:27.171Z,1.73
2024-04-24T15:38:53.772Z,1.77
2024-04-24T15:41:22.963Z,1.60
2024-04-24T15:43:49.587Z,2.33
2024-04-24T15:46:16.347Z,2.50
2024-04-24T15:48:42.950Z,2.90
2024-04-24T15:51:09.733Z,2.30
2024-04-24T15:53:36.331Z,2.92
2024-04-24T15:56:03.009Z,2.25
2024-04-24T15:58:32.123Z,2.38
2024-04-24T16:00:58.744Z,2.22
2024-04-24T16:03:25.402Z,2.17
2024-04-24T16:05:51.978Z,2.80
2024-04-24T16:08:18.592Z,2.50
2024-04-24T16:10:45.180Z,2.83
2024-04-24T16:13:11.715Z,2.88
2024-04-24T16:15:40.884Z,2.80
2024-04-24T16:18:07.741Z,2.90
2024-04-24T16:20:34.462Z,3.10
2024-04-24T16:23:01.142Z,2.60
2024-04-24T16:25:27.738Z,2.25
2024-04-24T16:27:54.350Z,2.58
2024-04-24T16:30:21.000Z,2.40
2024-04-24T16:32:50.190Z,1.95
2024-04-24T16:35:16.816Z,2.38
2024-04-24T16:37:45.855Z,2.47
2024-04-24T16:40:12.692Z,2.65
2024-04-24T16:42:39.314Z,2.58
2024-04-24T16:45:06.531Z,1.90
2024-04-24T16:47:33.260Z,2.00
2024-04-24T16:50:02.469Z,1.83
2024-04-24T16:52:29.062Z,1.63
2024-04-24T16:54:55.842Z,1.80
2024-04-24T16:57:22.530Z,2.10
2024-04-24T16:59:49.149Z,2.20
2024-04-24T17:02:15.693Z,1.85
2024-04-24T17:04:42.373Z,1.63
2024-04-24T17:07:11.598Z,2.08
2024-04-24T17:09:38.132Z,2.60
2024-04-24T17:12:05.515Z,2.50
2024-04-24T17:14:32.121Z,2.72
2024-04-24T17:16:58.872Z,2.35
2024-04-24T17:19:25.922Z,2.40
2024-04-24T17:21:52.666Z,1.98
2024-04-24T17:24:21.852Z,2.85
2024-04-24T17:26:48.819Z,1.60
2024-04-24T17:29:15.782Z,2.22
2024-04-24T17:31:42.439Z,2.30
2024-04-24T17:34:09.049Z,2.20
2024-04-24T17:36:35.625Z,2.30
2024-04-24T17:39:02.312Z,1.90
2024-04-24T17:41:31.614Z,2.38
2024-04-24T17:43:58.388Z,2.20
2024-04-24T17:46:24.958Z,2.30
2024-04-24T17:48:51.633Z,2.30
2024-04-24T17:51:18.246Z,2.35
2024-04-24T17:53:44.808Z,1.73
2024-04-24T17:56:11.425Z,1.80
2024-04-24T17:58:40.615Z,1.70
2024-04-24T18:01:07.174Z,1.80
2024-04-24T18:03:33.783Z,2.20
2024-04-24T18:06:00.395Z,2.00
2024-04-24T18:08:27.146Z,2.00
2024-04-24T18:10:53.906Z,2.03
2024-04-24T18:13:20.513Z,2.17
2024-04-24T18:15:49.669Z,2.05
2024-04-24T18:18:16.216Z,1.80
2024-04-24T18:20:43.030Z,2.78
2024-04-24T18:23:09.787Z,2.13
2024-04-24T18:25:36.483Z,1.40
2024-04-24T18:28:03.498Z,1.60
2024-04-24T18:30:30.299Z,1.20
2024-04-24T18:32:59.655Z,1.55
2024-04-24T18:35:26.419Z,2.03
2024-04-24T18:37:53.058Z,1.92
2024-04-24T18:40:19.813Z,2.28
2024-04-24T18:42:46.638Z,2.50
2024-04-24T18:45:13.266Z,2.60
2024-04-24T18:47:40.023Z,2.90
2024-04-24T18:50:09.785Z,3.42
2024-04-24T18:52:36.564Z,2.83
2024-04-24T18:55:03.213Z,3.25
2024-04-24T18:57:30.288Z,3.22
2024-04-24T18:59:56.971Z,5.18
2024-04-24T19:02:23.552Z,4.03
2024-04-24T19:04:50.243Z,3.08
2024-04-24T19:07:19.388Z,2.88
2024-04-24T19:09:45.983Z,3.00
2024-04-24T19:12:12.697Z,3.53
2024-04-24T19:14:39.385Z,2.30
2024-04-24T19:17:06.258Z,2.40
2024-04-24T19:19:32.978Z,2.65
2024-04-24T19:21:59.575Z,3.20
2024-04-24T19:24:28.705Z,4.55
2024-04-24T19:26:55.439Z,3.63
2024-04-24T19:29:22.170Z,3.13
2024-04-24T19:31:48.760Z,2.97
2024-04-24T19:34:15.538Z,2.63
2024-04-24T19:36:42.155Z,3.40
2024-04-24T19:39:08.724Z,3.03
2024-04-24T19:41:37.983Z,2.78
2024-04-24T19:44:07.701Z,2.90
2024-04-24T19:46:35.078Z,3.35
2024-04-24T19:49:01.885Z,3.10
2024-04-24T19:51:28.474Z,3.33
2024-04-24T19:53:55.079Z,3.30
2024-04-24T19:56:21.982Z,3.78
2024-04-24T19:58:51.341Z,4.03
2024-04-24T20:01:17.937Z,4.75
2024-04-24T20:03:44.690Z,4.50
2024-04-24T20:06:12.153Z,4.30
2024-04-24T20:08:39.408Z,4.95
2024-04-24T20:11:07.508Z,3.70
2024-04-24T20:13:34.593Z,4.07
2024-04-24T20:16:04.778Z,4.00
2024-04-24T20:18:31.852Z,4.63
2024-04-24T20:20:58.457Z,4.05
2024-04-24T20:23:25.128Z,4.13
2024-04-24T20:25:51.810Z,4.07
2024-04-24T20:28:18.385Z,4.28
2024-04-24T20:30:44.994Z,4.43
2024-04-24T20:33:14.487Z,5.10
2024-04-24T20:35:41.219Z,5.30
2024-04-24T20:38:07.874Z,5.82
2024-04-24T20:40:34.449Z,6.72
2024-04-24T20:43:00.990Z,6.20
2024-04-24T20:45:30.844Z,6.00
2024-04-24T20:47:57.667Z,6.18
2024-04-24T20:50:27.023Z,5.90
2024-04-24T20:52:53.715Z,5.70
2024-04-24T20:55:20.386Z,6.28
2024-04-24T20:57:47.174Z,6.97
2024-04-24T21:00:14.715Z,8.02
2024-04-24T21:02:41.387Z,6.53
2024-04-24T21:05:07.949Z,7.53
2024-04-24T21:07:37.104Z,7.43
2024-04-24T21:10:04.235Z,7.38
2024-04-24T21:12:31.624Z,7.53
2024-04-24T21:14:58.143Z,8.02
2024-04-24T21:17:24.931Z,6.78
2024-04-24T21:19:51.534Z,6.65
2024-04-24T21:22:18.080Z,7.05
2024-04-24T21:24:47.277Z,6.82
2024-04-24T21:27:15.779Z,7.38
2024-04-24T21:29:42.646Z,6.88
2024-04-24T21:32:09.415Z,7.63
2024-04-24T21:34:36.031Z,7.32
2024-04-24T21:37:02.562Z,6.63
2024-04-24T21:39:29.125Z,6.88
2024-04-24T21:41:58.231Z,6.93
2024-04-24T21:44:25.225Z,7.72
2024-04-24T21:46:51.810Z,6.70
2024-04-24T21:49:18.561Z,6.90
2024-04-24T21:51:45.086Z,6.53
2024-04-24T21:54:11.873Z,5.95
2024-04-24T21:56:38.575Z,4.95
2024-04-24T21:59:07.828Z,6.57
2024-04-24T22:01:34.512Z,7.15
2024-04-24T22:04:03.575Z,7.00
2024-04-24T22:06:30.179Z,7.38
2024-04-24T22:08:56.722Z,7.60
2024-04-24T22:11:23.288Z,8.07
2024-04-24T22:13:49.919Z,7.50
2024-04-24T22:16:19.112Z,8.57
2024-04-24T22:18:45.735Z,8.10
2024-04-24T22:21:12.406Z,7.20
2024-04-24T22:23:39.036Z,6.25
2024-04-24T22:26:05.702Z,7.05
2024-04-24T22:28:32.242Z,7.20
2024-04-24T22:30:58.929Z,6.68
2024-04-24T22:33:28.161Z,5.63
2024-04-24T22:35:54.755Z,6.35
2024-04-24T22:38:21.492Z,6.82
2024-04-24T22:40:48.112Z,6.93
2024-04-24T22:43:14.738Z,5.78
2024-04-24T22:45:41.339Z,7.72
2024-04-24T22:48:08.265Z,6.28
2024-04-24T22:50:37.441Z,6.03
2024-04-24T22:53:04.460Z,6.90
2024-04-24T22:55:31.083Z,7.85
2024-04-24T22:57:57.647Z,7.57
2024-04-24T23:00:24.385Z,6.90
2024-04-24T23:02:51.018Z,8.40
2024-04-24T23:05:17.645Z,8.25
2024-04-24T23:07:46.825Z,7.78
2024-04-24T23:10:13.498Z,7.25
2024-04-24T23:12:40.144Z,7.75
2024-04-24T23:15:07.480Z,7.40
2024-04-24T23:17:34.193Z,8.48
2024-04-24T23:20:00.754Z,9.15
2024-04-24T23:22:27.288Z,10.32
2024-04-24T23:24:56.385Z,11.00
2024-04-24T23:27:22.905Z,10.48
2024-04-24T23:29:49.561Z,10.18
2024-04-24T23:32:16.148Z,10.85
2024-04-24T23:34:42.706Z,11.73
2024-04-24T23:37:09.434Z,11.77
2024-04-24T23:39:35.957Z,10.82
2024-04-24T23:42:05.179Z,11.93
2024-04-24T23:44:31.806Z,12.07
2024-04-24T23:46:58.432Z,10.45
2024-04-24T23:49:25.195Z,12.88
2024-04-24T23:51:51.749Z,12.38
2024-04-24T23:54:18.371Z,13.32
2024-04-24T23:56:45.079Z,12.30
2024-04-24T23:59:14.454Z,12.55
